CheckWX is a tool to help pilots better visualize weather data.  It is not intended as a substitute for an official pre-flight weather briefing.

21:52:40 UTC

KHYW METAR
Conway-Horry County Airport
Conway, South Carolina, USA
Current

18 mins ago

KHYW 202135Z AUTO 33003KT 5SM BR OVC002 10/10 A3015 RMK AO2
Observed
Feb-20 @ 21:35 UTC
Wind
  • 330° at 3 KTS
Visibility
8,047 meters
Flight Rules
LIFR
Conditions
Mist
Cloud Levels
  • Overcast at 200' AGL
Temperature
10°C / 50°F
Dewpoint
10°C / 50°F
Humidity
100%
Altimeter
30.15" Hg
Pressure
1021.02 hPa
Previous

38 mins ago

KHYW 202115Z AUTO 32003KT 7SM OVC002 10/10 A3015 RMK AO2
Observed
Feb-20 @ 21:15 UTC
Wind
  • 320° at 3 KTS
Visibility
11,265 meters
Flight Rules
LIFR
Cloud Levels
  • Overcast at 200' AGL
Temperature
10°C / 50°F
Dewpoint
10°C / 50°F
Humidity
100%
Altimeter
30.15" Hg
Pressure
1021.02 hPa
Previous

58 mins ago

KHYW 202055Z AUTO 00000KT 5SM BR OVC002 10/10 A3015 RMK AO2
Observed
Feb-20 @ 20:55 UTC
Visibility
8,047 meters
Flight Rules
LIFR
Conditions
Mist
Cloud Levels
  • Overcast at 200' AGL
Temperature
10°C / 50°F
Dewpoint
10°C / 50°F
Humidity
100%
Altimeter
30.15" Hg
Pressure
1021.02 hPa